createdAt,value
2023-03-02T02:00:52.510Z,100.00
2023-03-02T02:03:23.862Z,100.00
2023-03-02T02:06:12.342Z,100.00
2023-03-02T02:08:39.706Z,100.00
2023-03-02T02:11:06.954Z,100.00
2023-03-02T02:13:34.118Z,100.00
2023-03-02T02:16:01.072Z,100.00
2023-03-02T02:18:28.405Z,100.00
2023-03-02T02:20:56.482Z,100.00
2023-03-02T06:45:13.695Z,100.00
2023-03-02T06:47:40.910Z,100.00
2023-03-02T06:50:08.246Z,100.00
2023-03-02T06:52:35.618Z,100.00
2023-03-02T06:55:03.101Z,100.00
2023-03-02T06:57:34.162Z,100.00
2023-03-02T07:00:29.327Z,100.00
2023-03-02T07:02:56.682Z,100.00
2023-03-02T07:05:24.675Z,100.00
2023-03-02T07:07:51.676Z,100.00
2023-03-02T07:10:18.769Z,100.00
2023-03-02T07:12:45.597Z,100.00
2023-03-02T07:15:14.463Z,100.00
2023-03-02T07:17:43.532Z,100.00
2023-03-02T07:20:15.305Z,100.00
2023-03-02T07:22:43.227Z,100.00
2023-03-02T07:25:11.135Z,100.00
2023-03-02T07:27:38.952Z,100.00
2023-03-02T07:30:07.060Z,100.00
2023-03-02T07:32:34.239Z,100.00
2023-03-02T07:35:01.233Z,100.00
2023-03-02T07:37:28.080Z,100.00
2023-03-02T07:39:54.931Z,100.00
2023-03-02T07:42:23.183Z,100.00
2023-03-02T07:44:55.770Z,100.00
2023-03-02T07:47:22.766Z,100.00
2023-03-02T07:49:49.752Z,100.00
2023-03-02T07:52:27.322Z,100.00
2023-03-02T07:54:54.174Z,100.00
2023-03-02T07:57:23.776Z,100.00
2023-03-02T08:00:02.538Z,100.00
2023-03-02T08:02:42.396Z,100.00
2023-03-02T08:05:16.014Z,100.00
2023-03-02T08:07:53.259Z,100.00
2023-03-02T08:10:27.177Z,100.00
2023-03-02T08:12:54.061Z,100.00
2023-03-02T08:15:21.005Z,100.00
2023-03-02T08:17:48.026Z,100.00
2023-03-02T08:20:15.236Z,100.00
2023-03-02T08:22:46.010Z,100.00
2023-03-02T08:25:22.125Z,100.00
2023-03-02T08:27:49.071Z,100.00
2023-03-02T08:30:16.048Z,100.00
2023-03-02T08:32:43.053Z,100.00
2023-03-02T08:35:10.250Z,100.00
2023-03-02T08:37:37.246Z,100.00
2023-03-02T08:40:04.302Z,100.00
2023-03-02T08:42:31.093Z,100.00
2023-03-02T08:44:57.883Z,100.00
2023-03-02T08:47:24.783Z,100.00
2023-03-02T08:49:51.878Z,100.00
2023-03-02T08:52:18.831Z,100.00
2023-03-02T08:54:45.733Z,100.00
2023-03-02T08:57:12.872Z,100.00
2023-03-02T08:59:39.806Z,100.00
2023-03-02T09:02:07.518Z,100.00
2023-03-02T09:04:34.440Z,100.00
2023-03-02T09:07:01.313Z,100.00
2023-03-02T09:09:28.207Z,100.00
2023-03-02T09:11:55.144Z,100.00
2023-03-02T09:14:22.526Z,100.00
2023-03-02T09:16:49.465Z,100.00
2023-03-02T09:19:16.465Z,100.00
2023-03-02T09:21:43.409Z,100.00
2023-03-02T09:24:10.452Z,100.00
2023-03-02T09:26:39.230Z,100.00
2023-03-02T09:29:07.333Z,100.00
2023-03-02T09:31:35.632Z,100.00
2023-03-02T09:34:02.834Z,100.00
2023-03-02T09:36:32.828Z,100.00
2023-03-02T09:38:59.823Z,100.00
2023-03-02T09:41:39.355Z,100.00
2023-03-02T09:44:27.955Z,100.00
2023-03-02T09:47:03.508Z,100.00
2023-03-02T09:49:49.219Z,100.00
2023-03-02T09:52:32.257Z,100.00
2023-03-02T09:55:33.630Z,100.00
2023-03-02T09:58:02.711Z,100.00
2023-03-02T10:00:35.539Z,100.00
2023-03-02T10:03:16.936Z,100.00
2023-03-02T10:05:48.077Z,100.00
2023-03-02T10:08:22.065Z,100.00
2023-03-02T10:11:27.726Z,100.00
2023-03-02T10:14:13.014Z,100.00
2023-03-02T10:16:49.001Z,100.00
2023-03-02T10:19:42.428Z,100.00
2023-03-02T10:22:18.714Z,100.00
2023-03-02T10:25:08.557Z,100.00
2023-03-02T10:27:39.443Z,100.00
2023-03-02T10:30:27.846Z,100.00
2023-03-02T10:32:58.506Z,100.00
2023-03-02T10:35:29.043Z,100.00
2023-03-02T10:38:00.585Z,100.00
2023-03-02T10:40:50.275Z,100.00
2023-03-02T10:43:54.637Z,100.00
2023-03-02T10:46:21.671Z,100.00
2023-03-02T10:48:56.785Z,100.00
2023-03-02T10:51:33.159Z,100.00
2023-03-02T10:54:10.038Z,100.00
2023-03-02T10:56:37.673Z,100.00
2023-03-02T10:59:27.250Z,100.00
2023-03-02T11:02:02.943Z,100.00
2023-03-02T11:04:31.565Z,99.65
2023-03-02T11:07:09.437Z,100.00
2023-03-02T11:09:36.516Z,99.65
2023-03-02T11:12:03.518Z,99.16
2023-03-02T11:14:31.216Z,99.12
2023-03-02T11:17:01.370Z,99.70
2023-03-02T11:19:35.993Z,99.70
2023-03-02T11:22:26.739Z,99.10
2023-03-02T11:24:58.591Z,98.39
2023-03-02T11:27:29.890Z,98.47
2023-03-02T11:30:02.885Z,97.03
2023-03-02T11:33:00.837Z,96.99
2023-03-02T11:35:42.867Z,96.27
2023-03-02T11:38:29.296Z,96.47
2023-03-02T11:41:25.016Z,97.12
2023-03-02T11:43:56.387Z,96.61
2023-03-02T11:46:26.942Z,95.79
2023-03-02T11:48:58.980Z,95.89
2023-03-02T11:51:30.171Z,95.13
2023-03-02T11:54:04.790Z,94.51
2023-03-02T11:56:38.674Z,94.21
2023-03-02T11:59:15.077Z,92.97
2023-03-02T12:01:43.514Z,93.89
2023-03-02T12:04:35.244Z,93.32
2023-03-02T12:07:16.101Z,92.94
2023-03-02T12:09:43.454Z,91.92
2023-03-02T12:12:19.569Z,92.07
2023-03-02T12:14:46.575Z,92.53
2023-03-02T12:17:21.613Z,95.48
2023-03-02T12:19:52.178Z,94.51
2023-03-02T12:22:31.012Z,92.79
2023-03-02T12:25:26.814Z,92.46
2023-03-02T12:27:55.158Z,92.35
2023-03-02T12:30:27.036Z,92.70
2023-03-02T12:33:20.615Z,92.74
2023-03-02T12:35:51.011Z,91.76
2023-03-02T12:38:32.826Z,92.32
2023-03-02T12:41:10.165Z,92.53
2023-03-02T12:43:42.589Z,91.53
2023-03-02T12:46:27.128Z,92.51
2023-03-02T12:49:11.874Z,92.59
2023-03-02T12:51:48.510Z,93.42
2023-03-02T12:54:18.666Z,93.11
2023-03-02T12:56:46.958Z,93.39
2023-03-02T12:59:25.529Z,94.51
2023-03-02T13:01:52.590Z,93.29
2023-03-02T13:04:27.194Z,93.50
2023-03-02T13:06:54.776Z,94.04
2023-03-02T13:09:23.069Z,93.23
2023-03-02T13:11:54.846Z,94.14
2023-03-02T13:14:27.754Z,92.76
2023-03-02T13:17:03.090Z,94.19
2023-03-02T13:19:31.202Z,93.40
2023-03-02T13:21:59.749Z,93.56
2023-03-02T13:24:44.709Z,92.79
2023-03-02T13:27:23.039Z,93.24
2023-03-02T13:29:52.935Z,93.83
2023-03-02T13:32:26.978Z,93.30
2023-03-02T13:34:59.686Z,94.38
2023-03-02T13:37:40.769Z,93.58
2023-03-02T13:40:27.694Z,94.18
2023-03-02T13:42:55.120Z,93.47
2023-03-02T13:45:29.490Z,93.44
2023-03-02T13:48:01.356Z,93.33
2023-03-02T13:50:31.548Z,94.46
2023-03-02T13:53:05.967Z,95.67
2023-03-02T13:55:34.463Z,94.28
2023-03-02T13:58:01.980Z,94.25
2023-03-02T14:00:31.330Z,93.72
2023-03-02T14:02:58.304Z,92.21
2023-03-02T14:05:35.844Z,92.45
2023-03-02T14:08:03.086Z,91.83
2023-03-02T14:10:30.097Z,92.36
2023-03-02T14:13:13.343Z,92.26
2023-03-02T14:15:43.499Z,91.54
2023-03-02T14:18:31.583Z,91.22
2023-03-02T14:20:58.888Z,90.94
2023-03-02T14:23:26.846Z,90.65
2023-03-02T14:25:55.415Z,90.45
2023-03-02T14:28:36.046Z,89.94
2023-03-02T14:31:03.442Z,90.17
2023-03-02T14:33:30.402Z,90.18
2023-03-02T14:35:58.881Z,91.11
2023-03-02T14:38:27.341Z,91.24
2023-03-02T14:40:54.330Z,90.66
2023-03-02T14:43:23.734Z,90.83
2023-03-02T14:45:52.223Z,91.75
2023-03-02T14:48:19.098Z,91.96
2023-03-02T14:50:49.115Z,92.43
2023-03-02T14:53:20.794Z,91.26
2023-03-02T14:55:47.861Z,91.29
2023-03-02T14:58:22.938Z,91.35
2023-03-02T15:00:49.894Z,90.71
2023-03-02T15:03:25.700Z,89.98
2023-03-02T15:06:00.899Z,89.51
2023-03-02T15:08:28.447Z,89.77
2023-03-02T15:10:55.415Z,89.96
2023-03-02T15:13:22.298Z,90.45
2023-03-02T15:15:50.257Z,90.55
2023-03-02T15:18:19.979Z,90.89
2023-03-02T15:20:47.085Z,89.70
2023-03-02T15:23:14.044Z,90.50
2023-03-02T15:25:40.996Z,90.87
2023-03-02T15:28:07.968Z,91.46
2023-03-02T15:30:36.094Z,92.11
2023-03-02T15:33:02.939Z,91.23
2023-03-02T15:35:29.887Z,91.54
2023-03-02T15:37:58.562Z,92.30
2023-03-02T15:40:25.844Z,92.20
2023-03-02T15:42:53.273Z,92.58
2023-03-02T15:45:20.373Z,92.26
2023-03-02T15:47:47.387Z,92.71
2023-03-02T15:50:16.899Z,92.75
2023-03-02T15:52:45.006Z,93.24
2023-03-02T15:55:11.840Z,93.31
2023-03-02T15:57:39.560Z,93.93
2023-03-02T16:00:07.511Z,93.92
2023-03-02T16:02:34.973Z,94.46
2023-03-02T16:05:02.892Z,95.06
2023-03-02T16:07:30.416Z,95.60
2023-03-02T16:09:57.552Z,95.34
2023-03-02T16:12:26.297Z,95.69
2023-03-02T16:14:53.161Z,96.02
2023-03-02T16:17:20.224Z,96.05
2023-03-02T16:19:47.245Z,95.97
2023-03-02T16:22:14.666Z,95.53
2023-03-02T16:24:42.001Z,95.73
2023-03-02T16:27:09.313Z,96.25
2023-03-02T16:29:36.246Z,96.39
2023-03-02T16:32:03.748Z,96.37
2023-03-02T16:34:30.729Z,97.33
2023-03-02T16:36:57.594Z,97.30
2023-03-02T16:39:24.788Z,97.63
2023-03-02T16:41:56.169Z,98.05
2023-03-02T16:44:23.713Z,98.97
2023-03-02T16:46:50.718Z,99.11
2023-03-02T16:49:17.587Z,99.81
2023-03-02T16:51:44.796Z,100.00
2023-03-02T16:54:16.189Z,100.00
2023-03-02T16:56:45.427Z,100.00
2023-03-02T16:59:13.616Z,100.00
2023-03-02T17:01:40.786Z,100.00
2023-03-02T17:04:08.170Z,100.00
2023-03-02T17:06:37.034Z,100.00
2023-03-02T17:09:04.156Z,100.00
2023-03-02T17:11:32.011Z,100.00
2023-03-02T17:13:58.924Z,100.00
2023-03-02T17:16:25.851Z,100.00
2023-03-02T17:18:52.823Z,100.00
2023-03-02T17:21:19.788Z,100.00
2023-03-02T17:23:48.307Z,100.00
2023-03-02T17:26:17.272Z,100.00
2023-03-02T17:28:44.313Z,100.00
2023-03-02T17:31:12.829Z,100.00
2023-03-02T17:33:40.042Z,100.00
2023-03-02T17:36:09.845Z,100.00
2023-03-02T17:38:36.703Z,100.00
2023-03-02T17:41:07.893Z,100.00
2023-03-02T17:43:37.123Z,100.00
2023-03-02T17:46:20.637Z,100.00
2023-03-02T17:48:49.939Z,100.00
2023-03-02T17:51:17.834Z,100.00
2023-03-02T17:53:46.332Z,100.00
2023-03-02T17:56:14.522Z,100.00
2023-03-02T17:58:45.530Z,100.00
2023-03-02T18:01:16.025Z,100.00
2023-03-02T18:03:43.322Z,100.00
2023-03-02T18:06:10.338Z,100.00
2023-03-02T18:08:38.064Z,100.00
2023-03-02T18:11:07.119Z,100.00
2023-03-02T18:13:34.161Z,100.00
2023-03-02T18:16:01.074Z,100.00
2023-03-02T18:18:28.038Z,100.00
2023-03-02T18:20:57.314Z,100.00
2023-03-02T18:23:26.717Z,100.00
2023-03-02T18:25:53.819Z,100.00
2023-03-02T18:28:20.781Z,100.00
2023-03-02T18:30:47.832Z,100.00
2023-03-02T18:33:14.862Z,100.00
2023-03-02T18:35:43.127Z,100.00
2023-03-02T18:38:10.081Z,100.00
2023-03-02T18:40:38.302Z,100.00
2023-03-02T18:43:06.412Z,100.00
2023-03-02T18:45:37.456Z,100.00
2023-03-02T18:48:05.008Z,100.00
2023-03-02T18:50:32.127Z,100.00
2023-03-02T18:52:58.994Z,100.00
2023-03-02T18:55:26.955Z,100.00
2023-03-02T18:57:55.086Z,100.00
2023-03-02T19:00:27.669Z,100.00
2023-03-02T19:02:56.054Z,100.00
2023-03-02T19:05:25.328Z,100.00
2023-03-02T19:07:52.547Z,100.00
2023-03-02T19:10:21.474Z,100.00
2023-03-02T19:12:49.251Z,100.00
2023-03-02T19:15:16.472Z,100.00
2023-03-02T19:17:43.931Z,100.00
